Time;durP1;ratioP1;P1;durP2;ratioP2;P2;SDS_P1;SDS_P2;PMS_P1;PMS_P2;Temp;Humidity;BMP_temperature;BMP_pressure;BME280_temperature;BME280_humidity;BME280_pressure;Samples;Min_cycle;Max_cycle;Signal;HPM_P1;HPM_P2
2022/05/29 00:00:41;;;;;;;6.75;2.30;;;;;;;;;;4961853;28;20030;-84
2022/05/29 00:03:07;;;;;;;8.13;2.20;;;;;;;;;;4994207;28;20513;-83
2022/05/29 00:05:34;;;;;;;10.60;2.30;;;;;;;;;;4993791;28;20049;-83
2022/05/29 00:08:01;;;;;;;8.82;2.45;;;;;;;;;;4993673;28;20089;-83
2022/05/29 00:10:27;;;;;;;7.45;2.50;;;;;;;;;;4994086;28;20086;-85
2022/05/29 00:12:53;;;;;;;7.65;2.90;;;;;;;;;;4974022;28;20447;-84
2022/05/29 00:15:19;;;;;;;8.73;2.47;;;;;;;;;;4990425;28;20054;-83
2022/05/29 00:17:45;;;;;;;8.13;2.35;;;;;;;;;;5006725;28;20050;-83
2022/05/29 00:20:11;;;;;;;6.47;2.70;;;;;;;;;;4988534;28;20392;-80
2022/05/29 00:22:39;;;;;;;7.07;2.67;;;;;;;;;;4972232;28;20051;-79
2022/05/29 00:25:07;;;;;;;10.43;2.67;;;;;;;;;;4970141;28;20054;-80
2022/05/29 00:27:34;;;;;;;10.27;2.78;;;;;;;;;;4972232;28;20406;-80
2022/05/29 00:30:00;;;;;;;9.00;2.60;;;;;;;;;;4989291;28;20129;-79
2022/05/29 00:32:26;;;;;;;8.20;2.80;;;;;;;;;;4989478;28;20053;-79
2022/05/29 00:34:52;;;;;;;9.23;2.58;;;;;;;;;;4975992;28;20089;-80
2022/05/29 00:37:18;;;;;;;10.32;2.80;;;;;;;;;;4978621;28;20046;-80
2022/05/29 00:39:45;;;;;;;11.48;2.60;;;;;;;;;;4953712;28;20035;-80
2022/05/29 00:42:12;;;;;;;10.90;2.95;;;;;;;;;;4970051;28;20043;-79
2022/05/29 00:44:39;;;;;;;11.30;2.70;;;;;;;;;;4970272;28;20043;-80
2022/05/29 00:47:12;;;;;;;14.13;3.05;;;;;;;;;;4985615;28;20075;-79
2022/05/29 00:49:39;;;;;;;10.32;2.90;;;;;;;;;;4986783;28;20423;-79
2022/05/29 00:52:08;;;;;;;11.88;2.78;;;;;;;;;;4985280;28;20042;-79
2022/05/29 00:54:37;;;;;;;9.55;3.08;;;;;;;;;;4985844;28;20562;-79
2022/05/29 00:57:04;;;;;;;15.50;3.75;;;;;;;;;;4992520;28;20050;-79
2022/05/29 00:59:32;;;;;;;14.60;3.00;;;;;;;;;;4982155;28;20105;-79
2022/05/29 01:01:59;;;;;;;12.82;3.10;;;;;;;;;;5001631;28;20051;-79
2022/05/29 01:04:25;;;;;;;14.00;4.10;;;;;;;;;;4985847;28;20039;-79
2022/05/29 01:06:52;;;;;;;11.25;2.95;;;;;;;;;;4986280;28;20043;-79
2022/05/29 01:09:18;;;;;;;12.35;3.00;;;;;;;;;;5005965;28;20121;-79
2022/05/29 01:12:00;;;;;;;9.98;2.90;;;;;;;;;;4980029;28;20042;-79
2022/05/29 01:14:31;;;;;;;12.55;3.08;;;;;;;;;;4974208;28;20564;-79
2022/05/29 01:17:07;;;;;;;12.00;3.25;;;;;;;;;;4977554;28;20094;-79
2022/05/29 01:19:48;;;;;;;10.77;2.90;;;;;;;;;;5015896;28;20051;-79
2022/05/29 01:22:17;;;;;;;14.85;2.97;;;;;;;;;;4985055;28;20159;-80
2022/05/29 01:24:56;;;;;;;13.95;3.00;;;;;;;;;;4985626;28;20588;-80
2022/05/29 01:27:34;;;;;;;12.73;3.00;;;;;;;;;;4985554;28;20046;-80
2022/05/29 01:30:14;;;;;;;11.57;3.20;;;;;;;;;;4972606;28;20047;-79
2022/05/29 01:33:04;;;;;;;12.07;2.85;;;;;;;;;;4985348;28;20049;-80
2022/05/29 01:35:33;;;;;;;15.65;3.10;;;;;;;;;;4969697;28;20085;-79
2022/05/29 01:38:02;;;;;;;10.10;3.30;;;;;;;;;;4984819;28;20043;-81
2022/05/29 01:40:40;;;;;;;10.32;2.55;;;;;;;;;;4985468;28;20047;-80
2022/05/29 01:43:11;;;;;;;9.52;2.70;;;;;;;;;;4985245;28;20050;-80
2022/05/29 01:45:53;;;;;;;11.32;2.63;;;;;;;;;;4985237;28;20161;-79
2022/05/29 01:48:23;;;;;;;9.50;2.47;;;;;;;;;;5001191;28;20043;-78
2022/05/29 01:50:54;;;;;;;7.47;2.40;;;;;;;;;;4985217;28;20045;-79
2022/05/29 01:53:27;;;;;;;10.63;2.53;;;;;;;;;;4984937;28;20082;-79
2022/05/29 01:55:55;;;;;;;11.80;2.88;;;;;;;;;;4982284;28;20039;-79
2022/05/29 01:58:27;;;;;;;11.35;2.60;;;;;;;;;;4993753;28;20078;-79
2022/05/29 02:00:55;;;;;;;7.93;2.50;;;;;;;;;;4985191;28;20038;-78
2022/05/29 02:03:26;;;;;;;8.43;2.20;;;;;;;;;;4958004;28;20053;-79
2022/05/29 02:05:56;;;;;;;8.77;2.30;;;;;;;;;;4970418;28;20594;-79
2022/05/29 02:08:28;;;;;;;13.18;3.13;;;;;;;;;;4987766;28;20053;-78
2022/05/29 02:10:54;;;;;;;14.57;2.60;;;;;;;;;;4970027;28;20129;-79
2022/05/29 02:13:28;;;;;;;8.70;2.40;;;;;;;;;;4970619;28;20132;-78
2022/05/29 02:16:08;;;;;;;10.40;2.40;;;;;;;;;;4988623;28;20086;-79
2022/05/29 02:18:49;;;;;;;10.95;2.72;;;;;;;;;;4988826;28;20039;-78
2022/05/29 02:21:18;;;;;;;6.80;2.22;;;;;;;;;;4988133;28;20077;-78
2022/05/29 02:23:52;;;;;;;7.88;2.40;;;;;;;;;;4988663;28;20043;-78
2022/05/29 02:26:21;;;;;;;7.13;2.30;;;;;;;;;;4988182;28;20054;-78
2022/05/29 02:28:50;;;;;;;7.95;2.42;;;;;;;;;;4988318;28;20034;-78
2022/05/29 02:31:25;;;;;;;11.45;2.88;;;;;;;;;;4988099;28;20073;-78
2022/05/29 02:33:56;;;;;;;10.10;2.58;;;;;;;;;;4988644;28;20398;-79
2022/05/29 02:36:42;;;;;;;7.20;2.67;;;;;;;;;;4988755;28;20058;-79
2022/05/29 02:39:20;;;;;;;11.65;2.60;;;;;;;;;;4988043;28;20093;-78
2022/05/29 02:42:05;;;;;;;10.50;3.13;;;;;;;;;;4988707;28;20054;-77
2022/05/29 02:44:31;;;;;;;7.93;3.17;;;;;;;;;;4977026;28;20078;-79
2022/05/29 02:47:02;;;;;;;8.50;2.67;;;;;;;;;;4971525;28;20043;-78
2022/05/29 02:49:31;;;;;;;9.93;2.95;;;;;;;;;;4974912;28;20097;-78
2022/05/29 02:51:59;;;;;;;8.27;2.88;;;;;;;;;;4987928;28;20034;-78
2022/05/29 02:54:26;;;;;;;9.88;3.20;;;;;;;;;;5004575;28;20047;-78
2022/05/29 02:56:56;;;;;;;10.82;3.17;;;;;;;;;;4988278;28;20046;-78
2022/05/29 02:59:24;;;;;;;12.15;3.28;;;;;;;;;;4987698;28;20042;-78
2022/05/29 03:02:09;;;;;;;10.65;3.00;;;;;;;;;;4971793;28;20088;-78
2022/05/29 03:04:38;;;;;;;10.63;2.95;;;;;;;;;;4987728;28;20552;-79
2022/05/29 03:07:23;;;;;;;12.35;3.45;;;;;;;;;;4987722;28;20083;-78
2022/05/29 03:09:55;;;;;;;8.52;2.95;;;;;;;;;;4971886;28;20038;-78
2022/05/29 03:12:40;;;;;;;9.93;3.10;;;;;;;;;;4987832;28;20117;-78
2022/05/29 03:15:06;;;;;;;14.20;3.45;;;;;;;;;;4974670;28;20066;-78
2022/05/29 03:17:32;;;;;;;11.15;3.28;;;;;;;;;;4986966;28;20047;-78
2022/05/29 03:20:20;;;;;;;15.88;4.18;;;;;;;;;;4987454;28;20379;-78
2022/05/29 03:23:08;;;;;;;8.98;2.88;;;;;;;;;;4971438;28;20047;-77
2022/05/29 03:25:41;;;;;;;9.25;2.92;;;;;;;;;;4976327;28;20101;-78
2022/05/29 03:28:27;;;;;;;11.23;3.10;;;;;;;;;;5003269;28;20049;-78
2022/05/29 03:30:55;;;;;;;12.25;3.40;;;;;;;;;;4971430;28;20109;-77
2022/05/29 03:33:21;;;;;;;13.65;3.20;;;;;;;;;;4986884;28;20046;-78
2022/05/29 03:35:53;;;;;;;11.07;3.35;;;;;;;;;;5003292;28;20039;-78
2022/05/29 03:38:20;;;;;;;11.55;3.22;;;;;;;;;;4987527;28;20394;-78
2022/05/29 03:40:47;;;;;;;12.23;3.58;;;;;;;;;;4989132;28;20122;-78
2022/05/29 03:43:13;;;;;;;10.73;3.35;;;;;;;;;;4971467;28;20390;-79
2022/05/29 03:45:39;;;;;;;10.02;2.75;;;;;;;;;;4986978;28;20402;-80
2022/05/29 03:48:06;;;;;;;10.82;3.15;;;;;;;;;;4987007;28;20170;-78
2022/05/29 03:50:34;;;;;;;8.73;2.92;;;;;;;;;;4970829;28;20058;-79
2022/05/29 03:53:00;;;;;;;9.70;2.70;;;;;;;;;;5003330;28;20073;-79
2022/05/29 03:55:26;;;;;;;8.25;2.75;;;;;;;;;;4970655;28;20117;-76
2022/05/29 03:57:53;;;;;;;10.57;2.70;;;;;;;;;;4960269;28;20092;-78
2022/05/29 04:00:20;;;;;;;11.05;2.70;;;;;;;;;;4971557;28;20118;-79
2022/05/29 04:02:46;;;;;;;8.57;2.50;;;;;;;;;;4978891;28;20590;-78
2022/05/29 04:05:13;;;;;;;11.63;2.70;;;;;;;;;;4981369;28;20053;-78
2022/05/29 04:13:09;;;;;;;10.30;2.30;;;;;;;;;;4995400;28;20090;-77
2022/05/29 04:15:37;;;;;;;10.25;2.25;;;;;;;;;;4969495;28;20051;-79
2022/05/29 04:18:04;;;;;;;9.95;2.47;;;;;;;;;;4968744;28;20047;-79
2022/05/29 04:20:30;;;;;;;9.25;2.33;;;;;;;;;;4984932;28;20043;-78
2022/05/29 04:22:57;;;;;;;8.80;2.10;;;;;;;;;;4982737;28;20311;-79
2022/05/29 04:25:23;;;;;;;9.55;2.35;;;;;;;;;;4983305;28;20066;-79
2022/05/29 04:27:49;;;;;;;13.00;2.80;;;;;;;;;;4986658;28;20461;-79
2022/05/29 04:30:15;;;;;;;9.38;2.88;;;;;;;;;;4985300;28;20077;-78
2022/05/29 04:32:59;;;;;;;9.30;2.45;;;;;;;;;;4985716;28;20102;-79
2022/05/29 04:35:25;;;;;;;9.75;3.00;;;;;;;;;;4986173;28;20034;-77
2022/05/29 04:37:51;;;;;;;9.98;2.80;;;;;;;;;;4954281;28;20066;-79
2022/05/29 04:40:18;;;;;;;12.25;3.00;;;;;;;;;;5002193;28;20030;-78
2022/05/29 04:42:44;;;;;;;8.35;2.60;;;;;;;;;;4986240;28;20419;-78
2022/05/29 04:45:10;;;;;;;11.02;2.80;;;;;;;;;;4985745;28;20442;-77
2022/05/29 04:47:36;;;;;;;11.07;2.65;;;;;;;;;;5002378;28;20057;-78
2022/05/29 04:50:03;;;;;;;12.18;2.90;;;;;;;;;;4985552;28;20038;-77
2022/05/29 04:52:29;;;;;;;11.38;3.22;;;;;;;;;;5001833;28;20046;-78
2022/05/29 04:54:56;;;;;;;10.68;2.70;;;;;;;;;;4985937;28;20097;-76
2022/05/29 04:57:22;;;;;;;11.77;3.03;;;;;;;;;;4991465;28;20118;-75
2022/05/29 04:59:49;;;;;;;8.35;2.22;;;;;;;;;;4971179;28;20399;-77
2022/05/29 05:02:15;;;;;;;10.27;2.42;;;;;;;;;;4985755;28;20047;-78
2022/05/29 05:04:41;;;;;;;8.35;2.10;;;;;;;;;;4986127;28;20105;-79
2022/05/29 05:07:10;;;;;;;9.23;2.28;;;;;;;;;;4969375;28;20055;-77
2022/05/29 05:09:36;;;;;;;13.93;2.47;;;;;;;;;;4985382;28;20086;-78
2022/05/29 05:12:02;;;;;;;8.40;2.20;;;;;;;;;;4985564;28;20057;-80
2022/05/29 05:14:29;;;;;;;10.13;2.50;;;;;;;;;;4969376;28;20130;-78
2022/05/29 05:16:56;;;;;;;6.28;2.00;;;;;;;;;;4985805;28;20174;-78
2022/05/29 05:19:23;;;;;;;8.73;2.05;;;;;;;;;;4969305;28;20398;-79
2022/05/29 05:21:49;;;;;;;6.43;2.08;;;;;;;;;;4985648;28;20421;-79
2022/05/29 05:24:16;;;;;;;7.30;2.28;;;;;;;;;;4984857;28;20046;-80
2022/05/29 05:26:42;;;;;;;7.78;1.73;;;;;;;;;;4969109;28;20041;-78
2022/05/29 05:29:08;;;;;;;7.07;1.80;;;;;;;;;;4987347;28;20054;-86
2022/05/29 05:31:34;;;;;;;8.13;2.10;;;;;;;;;;4988589;28;20051;-85
2022/05/29 05:34:00;;;;;;;5.35;1.75;;;;;;;;;;4990054;28;20042;-86
2022/05/29 05:36:26;;;;;;;10.13;2.08;;;;;;;;;;4990615;28;20038;-92
2022/05/29 05:38:53;;;;;;;14.68;2.15;;;;;;;;;;5006612;28;20329;-85
2022/05/29 05:41:20;;;;;;;9.95;2.10;;;;;;;;;;4979089;28;20354;-87
2022/05/29 05:43:46;;;;;;;7.03;2.10;;;;;;;;;;4988932;28;20715;-85
2022/05/29 05:46:14;;;;;;;7.55;2.03;;;;;;;;;;4987240;28;20058;-85
2022/05/29 05:48:40;;;;;;;6.95;1.75;;;;;;;;;;4990063;28;20065;-85
2022/05/29 05:51:07;;;;;;;6.88;1.73;;;;;;;;;;4989867;28;20042;-89
2022/05/29 05:53:33;;;;;;;7.00;1.80;;;;;;;;;;4990077;28;20084;-85
2022/05/29 05:55:59;;;;;;;8.60;1.92;;;;;;;;;;4988735;28;20174;-85
2022/05/29 05:58:26;;;;;;;7.90;2.08;;;;;;;;;;5017712;28;20537;-87
2022/05/29 06:00:52;;;;;;;7.95;1.95;;;;;;;;;;4987063;28;20042;-85
2022/05/29 06:03:18;;;;;;;7.22;1.85;;;;;;;;;;5005797;28;20050;-86
2022/05/29 06:05:44;;;;;;;8.38;1.70;;;;;;;;;;5004878;28;20144;-91
2022/05/29 06:08:10;;;;;;;8.02;2.28;;;;;;;;;;4984573;28;20046;-85
2022/05/29 06:10:36;;;;;;;8.23;2.47;;;;;;;;;;4971266;28;20050;-80
2022/05/29 06:13:06;;;;;;;9.00;1.70;;;;;;;;;;4984349;28;20106;-80
2022/05/29 06:15:33;;;;;;;8.88;1.75;;;;;;;;;;4984880;28;20055;-79
2022/05/29 06:17:59;;;;;;;9.65;2.22;;;;;;;;;;4984437;28;20141;-78
2022/05/29 06:20:25;;;;;;;11.88;1.90;;;;;;;;;;4971985;28;20438;-93
2022/05/29 06:22:52;;;;;;;8.38;2.08;;;;;;;;;;5003879;28;20126;-92
2022/05/29 06:25:18;;;;;;;8.45;1.88;;;;;;;;;;4992889;28;20057;-88
2022/05/29 06:27:45;;;;;;;10.05;1.83;;;;;;;;;;4981610;28;20069;-91
2022/05/29 06:30:13;;;;;;;9.75;1.90;;;;;;;;;;4986170;28;20045;-79
2022/05/29 06:32:39;;;;;;;7.32;1.92;;;;;;;;;;4985027;28;20454;-78
2022/05/29 06:35:08;;;;;;;12.18;2.30;;;;;;;;;;4984072;28;20039;-79
2022/05/29 06:37:34;;;;;;;11.45;1.88;;;;;;;;;;4968734;28;20043;-77
2022/05/29 06:40:00;;;;;;;7.47;1.67;;;;;;;;;;4984584;28;20048;-80
2022/05/29 06:42:26;;;;;;;11.07;2.35;;;;;;;;;;5001716;28;20490;-75
2022/05/29 06:44:52;;;;;;;11.40;1.63;;;;;;;;;;4954507;28;20049;-84
2022/05/29 06:47:19;;;;;;;7.13;1.60;;;;;;;;;;4971686;28;20042;-91
2022/05/29 06:49:48;;;;;;;6.28;1.55;;;;;;;;;;5004569;28;20042;-83
2022/05/29 06:52:15;;;;;;;7.43;1.50;;;;;;;;;;4988922;28;20047;-85
2022/05/29 06:54:41;;;;;;;9.70;1.58;;;;;;;;;;4991388;28;20094;-84
2022/05/29 06:57:08;;;;;;;9.38;1.60;;;;;;;;;;4977255;28;20054;-91
2022/05/29 07:07:52;;;;;;;14.75;1.77;;;;;;;;;;4976587;28;20046;-79
2022/05/29 07:10:18;;;;;;;11.13;2.03;;;;;;;;;;4970954;28;20042;-79
2022/05/29 07:12:44;;;;;;;6.85;1.67;;;;;;;;;;4971439;28;20043;-77
2022/05/29 07:15:11;;;;;;;9.27;1.65;;;;;;;;;;4987584;28;20050;-77
2022/05/29 07:17:37;;;;;;;8.32;1.75;;;;;;;;;;5001459;28;20046;-77
2022/05/29 07:20:03;;;;;;;9.23;1.42;;;;;;;;;;4986990;28;20051;-77
2022/05/29 07:22:30;;;;;;;10.15;1.83;;;;;;;;;;4988040;28;20101;-76
2022/05/29 07:24:56;;;;;;;13.05;2.10;;;;;;;;;;4987470;28;20039;-76
2022/05/29 07:27:22;;;;;;;7.13;1.55;;;;;;;;;;5003468;28;20057;-78
2022/05/29 07:29:49;;;;;;;9.35;1.65;;;;;;;;;;4987222;28;20055;-76
2022/05/29 07:32:15;;;;;;;7.97;1.45;;;;;;;;;;5003728;28;20549;-76
2022/05/29 07:34:43;;;;;;;7.28;1.35;;;;;;;;;;4987717;28;20035;-76
2022/05/29 07:37:11;;;;;;;7.75;1.30;;;;;;;;;;5003367;28;20046;-76
2022/05/29 07:39:41;;;;;;;9.43;1.40;;;;;;;;;;4983166;28;20413;-76
2022/05/29 07:44:52;;;;;;;9.30;1.80;;;;;;;;;;4971343;28;20058;-77
2022/05/29 07:47:22;;;;;;;8.98;1.38;;;;;;;;;;4970988;28;20049;-78
2022/05/29 07:49:49;;;;;;;11.82;2.00;;;;;;;;;;4987142;28;20039;-78
2022/05/29 07:52:15;;;;;;;6.95;1.40;;;;;;;;;;4986561;28;20066;-76
2022/05/29 07:54:41;;;;;;;8.25;1.48;;;;;;;;;;4987345;28;20384;-76
2022/05/29 07:57:07;;;;;;;9.68;1.77;;;;;;;;;;4975227;28;20046;-76
2022/05/29 07:59:33;;;;;;;7.60;1.30;;;;;;;;;;4971290;28;20479;-79
2022/05/29 08:01:59;;;;;;;11.30;1.60;;;;;;;;;;4970583;28;20475;-77
2022/05/29 08:04:27;;;;;;;7.63;1.33;;;;;;;;;;4986724;28;20039;-77
2022/05/29 08:06:53;;;;;;;9.68;1.55;;;;;;;;;;4970728;28;20497;-81
2022/05/29 08:09:19;;;;;;;7.38;1.60;;;;;;;;;;4986930;28;20376;-78
2022/05/29 08:11:46;;;;;;;7.97;1.42;;;;;;;;;;4986831;28;20038;-78
2022/05/29 08:14:12;;;;;;;8.27;1.55;;;;;;;;;;4970266;28;20058;-77
2022/05/29 08:16:39;;;;;;;9.25;1.50;;;;;;;;;;4986850;28;20042;-79
2022/05/29 08:19:07;;;;;;;8.18;1.40;;;;;;;;;;5002493;28;20038;-75
2022/05/29 08:21:33;;;;;;;6.60;1.33;;;;;;;;;;4971629;28;20042;-77
2022/05/29 08:32:14;;;;;;;8.95;1.65;;;;;;;;;;5001784;28;20055;-77
2022/05/29 08:34:42;;;;;;;4.95;1.05;;;;;;;;;;4971657;28;20051;-76
2022/05/29 08:37:08;;;;;;;7.20;1.33;;;;;;;;;;4970920;28;20054;-77
2022/05/29 08:39:35;;;;;;;3.78;1.00;;;;;;;;;;4986363;28;20047;-80
2022/05/29 08:42:01;;;;;;;4.47;1.00;;;;;;;;;;5002018;28;20081;-77
2022/05/29 08:44:33;;;;;;;6.25;1.08;;;;;;;;;;4986409;28;20034;-77
2022/05/29 08:47:04;;;;;;;6.28;1.10;;;;;;;;;;4986082;28;20655;-78
2022/05/29 08:49:37;;;;;;;6.88;1.10;;;;;;;;;;5002871;28;20043;-75
2022/05/29 08:52:27;;;;;;;7.00;1.20;;;;;;;;;;4969555;28;20379;-75
2022/05/29 08:54:56;;;;;;;6.65;1.42;;;;;;;;;;4969757;28;20031;-77
2022/05/29 08:57:33;;;;;;;6.13;1.20;;;;;;;;;;4974791;28;20039;-77
2022/05/29 09:00:07;;;;;;;7.30;1.42;;;;;;;;;;4985810;28;20049;-78
2022/05/29 09:02:43;;;;;;;8.80;1.23;;;;;;;;;;4985717;28;20047;-76
2022/05/29 09:05:12;;;;;;;6.13;1.73;;;;;;;;;;5002209;28;20038;-78
2022/05/29 09:07:40;;;;;;;6.15;1.17;;;;;;;;;;4985750;28;20046;-76
2022/05/29 09:10:10;;;;;;;6.82;1.35;;;;;;;;;;4985337;28;20133;-77
2022/05/29 09:12:48;;;;;;;5.90;0.98;;;;;;;;;;4985228;28;20100;-77
2022/05/29 09:15:30;;;;;;;5.93;1.30;;;;;;;;;;4984729;28;20142;-76
2022/05/29 09:17:59;;;;;;;6.15;0.95;;;;;;;;;;4985708;28;20483;-76
2022/05/29 09:20:28;;;;;;;5.05;0.90;;;;;;;;;;4985680;28;20050;-80
2022/05/29 09:22:56;;;;;;;3.85;0.98;;;;;;;;;;4968986;28;20043;-77
2022/05/29 09:25:31;;;;;;;4.68;1.02;;;;;;;;;;5001885;28;20065;-75
2022/05/29 09:28:05;;;;;;;3.28;0.90;;;;;;;;;;4985618;28;20050;-77
2022/05/29 09:30:32;;;;;;;3.70;0.88;;;;;;;;;;4958338;28;20040;-81
2022/05/29 09:33:04;;;;;;;2.80;0.70;;;;;;;;;;5002109;28;20042;-78
2022/05/29 09:35:41;;;;;;;4.60;0.90;;;;;;;;;;4969506;28;20039;-76
2022/05/29 09:38:07;;;;;;;6.00;0.98;;;;;;;;;;4985107;28;20045;-78
2022/05/29 09:40:36;;;;;;;6.30;1.13;;;;;;;;;;4985499;28;20463;-77
2022/05/29 09:43:19;;;;;;;5.18;0.80;;;;;;;;;;4985313;28;20566;-79
2022/05/29 09:45:45;;;;;;;2.95;0.70;;;;;;;;;;4972700;28;20546;-78
2022/05/29 09:51:32;;;;;;;3.78;0.90;;;;;;;;;;4984786;28;20047;-76
2022/05/29 09:54:01;;;;;;;4.53;1.00;;;;;;;;;;4984983;28;20057;-77
2022/05/29 09:56:31;;;;;;;3.88;0.80;;;;;;;;;;4961760;28;20074;-78
2022/05/29 09:59:04;;;;;;;3.33;0.80;;;;;;;;;;4998300;28;20039;-77
2022/05/29 10:01:40;;;;;;;4.82;0.90;;;;;;;;;;5001423;28;20053;-77
2022/05/29 10:04:08;;;;;;;4.15;1.00;;;;;;;;;;5000829;28;20064;-75
2022/05/29 10:06:54;;;;;;;4.68;1.08;;;;;;;;;;5001629;28;20414;-77
2022/05/29 10:09:22;;;;;;;5.25;1.10;;;;;;;;;;4984575;28;20047;-78
2022/05/29 10:11:50;;;;;;;5.18;1.13;;;;;;;;;;4984907;28;20483;-77
2022/05/29 10:14:24;;;;;;;4.22;1.05;;;;;;;;;;4984053;28;20066;-77
2022/05/29 10:16:53;;;;;;;7.15;1.25;;;;;;;;;;4969016;28;20061;-78
2022/05/29 10:19:36;;;;;;;5.10;1.08;;;;;;;;;;4968125;28;20043;-79
2022/05/29 10:22:03;;;;;;;7.00;0.95;;;;;;;;;;4984981;28;20046;-78
2022/05/29 10:24:37;;;;;;;6.05;1.60;;;;;;;;;;4984575;28;20046;-77
2022/05/29 10:27:14;;;;;;;6.30;1.00;;;;;;;;;;4972686;28;20126;-75
2022/05/29 10:29:41;;;;;;;4.97;1.35;;;;;;;;;;4988578;28;20106;-79
2022/05/29 10:32:20;;;;;;;6.07;1.08;;;;;;;;;;4988322;28;20043;-74
2022/05/29 10:34:46;;;;;;;4.18;1.00;;;;;;;;;;4972674;28;20520;-79
2022/05/29 10:37:25;;;;;;;4.25;1.10;;;;;;;;;;4988529;28;20078;-77
2022/05/29 10:39:51;;;;;;;7.15;1.02;;;;;;;;;;4988401;28;20122;-78
2022/05/29 10:42:37;;;;;;;7.28;1.17;;;;;;;;;;5004249;28;20126;-78
2022/05/29 10:45:03;;;;;;;;;;;;;;;;;;4972349;28;20053;-75
2022/05/29 10:47:33;;;;;;;6.80;1.05;;;;;;;;;;4988118;28;20433;-77
2022/05/29 10:50:12;;;;;;;7.07;1.25;;;;;;;;;;4988443;28;20048;-77
2022/05/29 10:52:38;;;;;;;4.45;1.00;;;;;;;;;;4976002;28;20050;-77
2022/05/29 10:55:13;;;;;;;6.03;0.93;;;;;;;;;;4988812;28;20395;-78
2022/05/29 10:57:58;;;;;;;3.30;0.90;;;;;;;;;;4977560;28;20038;-77
2022/05/29 11:00:33;;;;;;;3.95;1.00;;;;;;;;;;4987250;28;20650;-77
2022/05/29 11:03:18;;;;;;;7.82;1.02;;;;;;;;;;4973025;28;20504;-78
2022/05/29 11:06:02;;;;;;;5.90;1.00;;;;;;;;;;4988100;28;20066;-77
2022/05/29 11:08:31;;;;;;;6.60;0.98;;;;;;;;;;4987904;28;20047;-77
2022/05/29 11:11:14;;;;;;;8.15;1.45;;;;;;;;;;4987682;28;20042;-77
2022/05/29 11:14:04;;;;;;;10.38;1.67;;;;;;;;;;4987672;28;20499;-77
2022/05/29 11:16:33;;;;;;;6.40;1.08;;;;;;;;;;4975630;28;20059;-76
2022/05/29 11:19:08;;;;;;;16.70;4.55;;;;;;;;;;4987720;28;20049;-76
2022/05/29 11:21:52;;;;;;;8.30;1.90;;;;;;;;;;4987458;28;20081;-77
2022/05/29 11:24:23;;;;;;;4.72;0.90;;;;;;;;;;4987692;28;20047;-77
2022/05/29 11:26:49;;;;;;;3.72;0.65;;;;;;;;;;4987740;28;20102;-77
2022/05/29 11:29:15;;;;;;;4.80;1.00;;;;;;;;;;4987345;28;20042;-77
2022/05/29 11:31:56;;;;;;;2.88;0.50;;;;;;;;;;4987786;28;20061;-78
2022/05/29 11:34:30;;;;;;;3.40;0.90;;;;;;;;;;4987024;28;20047;-77
2022/05/29 11:37:03;;;;;;;2.97;0.70;;;;;;;;;;4987369;28;20796;-78
2022/05/29 11:39:41;;;;;;;3.58;0.80;;;;;;;;;;4986258;28;20039;-76
2022/05/29 11:42:10;;;;;;;4.07;0.80;;;;;;;;;;4987537;28;20046;-78
2022/05/29 11:44:55;;;;;;;3.55;0.80;;;;;;;;;;4987439;28;20050;-77
2022/05/29 11:53:12;;;;;;;5.88;1.70;;;;;;;;;;4987416;28;20483;-76
2022/05/29 11:55:40;;;;;;;2.67;1.10;;;;;;;;;;4986444;28;20125;-78
2022/05/29 11:58:25;;;;;;;8.50;1.00;;;;;;;;;;4994777;28;20125;-87
2022/05/29 12:00:54;;;;;;;4.70;1.30;;;;;;;;;;4973121;28;20043;-82
2022/05/29 12:03:23;;;;;;;5.75;1.00;;;;;;;;;;4990091;28;20042;-90
2022/05/29 12:05:53;;;;;;;3.63;0.85;;;;;;;;;;4992424;28;20046;-87
2022/05/29 12:08:24;;;;;;;4.20;0.90;;;;;;;;;;4991825;28;20053;-82
2022/05/29 12:10:53;;;;;;;5.93;1.00;;;;;;;;;;4976640;28;20453;-85
2022/05/29 12:13:22;;;;;;;3.03;0.85;;;;;;;;;;4989259;28;20064;-84
2022/05/29 12:15:54;;;;;;;6.07;1.10;;;;;;;;;;4986902;28;20043;-77
2022/05/29 12:18:20;;;;;;;3.65;1.00;;;;;;;;;;4970491;28;20479;-80
2022/05/29 12:20:52;;;;;;;5.82;1.02;;;;;;;;;;4986423;28;20462;-77
2022/05/29 12:23:25;;;;;;;7.40;1.00;;;;;;;;;;4969998;28;20134;-79
2022/05/29 12:26:00;;;;;;;5.80;1.00;;;;;;;;;;5003163;28;20454;-76
2022/05/29 12:28:32;;;;;;;6.40;1.30;;;;;;;;;;5002635;28;20061;-78
2022/05/29 12:30:59;;;;;;;5.03;0.90;;;;;;;;;;4970040;28;20134;-78
2022/05/29 12:33:27;;;;;;;4.65;1.40;;;;;;;;;;4969403;28;20038;-78
2022/05/29 12:36:06;;;;;;;2.92;0.90;;;;;;;;;;5003027;28;20121;-78
2022/05/29 12:38:51;;;;;;;7.95;1.17;;;;;;;;;;4986040;28;20033;-81
2022/05/29 12:41:36;;;;;;;7.05;1.30;;;;;;;;;;4986211;28;20372;-75
2022/05/29 12:44:09;;;;;;;4.38;1.10;;;;;;;;;;4972796;28;20050;-77
2022/05/29 12:46:35;;;;;;;6.88;1.10;;;;;;;;;;4970160;28;20053;-78
2022/05/29 12:49:16;;;;;;;4.38;1.17;;;;;;;;;;4969792;28;20061;-77
2022/05/29 12:51:48;;;;;;;5.60;1.50;;;;;;;;;;4985990;28;20046;-80
2022/05/29 12:54:21;;;;;;;6.00;1.10;;;;;;;;;;4972181;28;20068;-78
2022/05/29 12:56:53;;;;;;;6.22;1.25;;;;;;;;;;4991836;28;20203;-78
2022/05/29 12:59:38;;;;;;;8.77;1.13;;;;;;;;;;4972500;28;20479;-77
2022/05/29 13:02:13;;;;;;;4.40;1.08;;;;;;;;;;4985549;28;20151;-78
2022/05/29 13:04:58;;;;;;;6.10;1.10;;;;;;;;;;4969687;28;20037;-78
2022/05/29 13:07:24;;;;;;;7.22;1.17;;;;;;;;;;4985506;28;20038;-79
2022/05/29 13:09:56;;;;;;;7.30;1.20;;;;;;;;;;4985655;28;20046;-78
2022/05/29 13:12:40;;;;;;;3.88;1.05;;;;;;;;;;4969077;28;20126;-77
2022/05/29 13:15:07;;;;;;;5.25;1.02;;;;;;;;;;5001628;28;20059;-79
2022/05/29 13:17:34;;;;;;;9.52;1.58;;;;;;;;;;4987977;28;20070;-78
2022/05/29 13:20:03;;;;;;;6.78;1.20;;;;;;;;;;4980594;28;20051;-80
2022/05/29 13:22:48;;;;;;;5.03;1.13;;;;;;;;;;4969432;28;20043;-80
2022/05/29 13:25:14;;;;;;;5.13;1.00;;;;;;;;;;5001664;28;20050;-77
2022/05/29 13:27:41;;;;;;;5.80;1.00;;;;;;;;;;4969225;28;20078;-76
2022/05/29 13:30:08;;;;;;;8.07;1.52;;;;;;;;;;5002121;28;20734;-78
2022/05/29 13:32:35;;;;;;;5.75;0.90;;;;;;;;;;4969097;28;20495;-77
2022/05/29 13:35:04;;;;;;;7.25;1.23;;;;;;;;;;4985115;28;20043;-80
2022/05/29 13:37:33;;;;;;;4.65;0.90;;;;;;;;;;4968788;28;20038;-78
2022/05/29 13:40:00;;;;;;;8.93;1.20;;;;;;;;;;4985469;28;20376;-77
2022/05/29 13:42:38;;;;;;;5.15;0.93;;;;;;;;;;5001404;28;20081;-75
2022/05/29 13:45:20;;;;;;;5.13;1.20;;;;;;;;;;4985216;28;20101;-77
2022/05/29 13:47:47;;;;;;;6.75;1.45;;;;;;;;;;4985278;28;20402;-77
2022/05/29 13:50:13;;;;;;;4.65;1.05;;;;;;;;;;4969885;28;20046;-78
2022/05/29 13:52:39;;;;;;;7.47;1.17;;;;;;;;;;4984986;28;20061;-77
2022/05/29 13:55:07;;;;;;;6.13;0.95;;;;;;;;;;4969555;28;20495;-78
2022/05/29 14:06:20;;;;;;;3.75;1.20;;;;;;;;;;4991979;28;20074;-78
2022/05/29 14:08:55;;;;;;;7.28;0.95;;;;;;;;;;4989420;28;20562;-77
2022/05/29 14:11:22;;;;;;;5.80;1.10;;;;;;;;;;4961519;28;20405;-78
2022/05/29 14:13:53;;;;;;;3.55;1.00;;;;;;;;;;4988938;28;20564;-78
2022/05/29 14:16:25;;;;;;;4.68;1.00;;;;;;;;;;4988682;28;20041;-78
2022/05/29 14:18:57;;;;;;;7.38;1.55;;;;;;;;;;4988950;28;20038;-78
2022/05/29 14:21:26;;;;;;;6.40;1.10;;;;;;;;;;4987952;28;20031;-77
2022/05/29 14:24:08;;;;;;;5.53;1.10;;;;;;;;;;5004886;28;20506;-77
2022/05/29 14:26:49;;;;;;;6.55;2.10;;;;;;;;;;4990918;28;20506;-77
2022/05/29 14:29:34;;;;;;;45.95;23.33;;;;;;;;;;4981668;28;20100;-78
2022/05/29 14:32:00;;;;;;;27.40;12.63;;;;;;;;;;4972705;28;20093;-76
2022/05/29 14:34:29;;;;;;;14.30;6.75;;;;;;;;;;4971980;28;20042;-76
2022/05/29 14:37:03;;;;;;;25.45;15.65;;;;;;;;;;4988245;28;20039;-78
2022/05/29 14:39:35;;;;;;;10.90;4.35;;;;;;;;;;4972064;28;20046;-78
2022/05/29 14:42:11;;;;;;;9.68;2.30;;;;;;;;;;4988514;28;20113;-78
2022/05/29 14:44:41;;;;;;;7.50;1.98;;;;;;;;;;4988768;28;20047;-78
2022/05/29 14:47:11;;;;;;;7.57;2.67;;;;;;;;;;4988312;28;20042;-78
2022/05/29 14:49:40;;;;;;;7.75;1.50;;;;;;;;;;4989103;28;20070;-79
2022/05/29 14:52:10;;;;;;;8.07;2.72;;;;;;;;;;4988043;28;20039;-79
2022/05/29 14:54:38;;;;;;;11.70;2.00;;;;;;;;;;5004916;28;20070;-77
2022/05/29 14:57:07;;;;;;;7.85;1.80;;;;;;;;;;4993232;28;20106;-78
2022/05/29 14:59:38;;;;;;;9.05;1.40;;;;;;;;;;5004528;28;20094;-79
2022/05/29 15:02:10;;;;;;;8.70;1.63;;;;;;;;;;4971477;28;20075;-78
2022/05/29 15:04:40;;;;;;;12.82;2.20;;;;;;;;;;4972230;28;20606;-78
2022/05/29 15:12:41;;;;;;;14.82;4.03;;;;;;;;;;4987159;28;20075;-77
2022/05/29 15:15:26;;;;;;;7.38;1.55;;;;;;;;;;4987516;28;20058;-78
2022/05/29 15:17:52;;;;;;;7.47;1.30;;;;;;;;;;5003986;28;20388;-77
2022/05/29 15:26:01;;;;;;;10.20;1.80;;;;;;;;;;4972878;28;20430;-76
2022/05/29 15:28:27;;;;;;;10.35;1.42;;;;;;;;;;4970973;28;20039;-78
2022/05/29 15:30:53;;;;;;;8.15;1.75;;;;;;;;;;4987683;28;20046;-79
2022/05/29 15:33:23;;;;;;;7.45;1.63;;;;;;;;;;5003539;28;20510;-78
2022/05/29 15:36:08;;;;;;;5.22;1.27;;;;;;;;;;4987355;28;20043;-75
2022/05/29 15:38:49;;;;;;;6.78;1.20;;;;;;;;;;4986902;28;20081;-77
2022/05/29 15:41:27;;;;;;;16.58;5.85;;;;;;;;;;4987143;28;20043;-78
2022/05/29 15:44:13;;;;;;;5.85;1.33;;;;;;;;;;4987246;28;20134;-77
2022/05/29 15:46:40;;;;;;;;;;;;;;;;;;4948871;28;20054;-78
2022/05/29 15:49:06;;;;;;;;;;;;;;;;;;4987507;28;20008;-78
2022/05/29 15:51:55;;;;;;;6.70;1.17;;;;;;;;;;4986937;28;20004;-77
2022/05/29 15:54:40;;;;;;;7.57;1.23;;;;;;;;;;4974646;28;20050;-76